Weather History for Menominee, MI

Change the Weather History Date:

Saturday, September 10, 2011

  Actual Average Record
Temperature  
Mean Temperature 64 °F -  
Max Temperature 75 °F 73 °F 92 °F (1961)
Min Temperature 53 °F 52 °F 39 °F (1967)
Degree Days  
Heating Degree Days 1    
Growing Degree Days 14 (Base 50)    
Moisture  
Dew Point 57 °F    
Average Humidity 80    
Maximum Humidity 100    
Minimum Humidity 61    
Precipitation  
Precipitation 0.00 in - - ()
Sea Level Pressure  
Sea Level Pressure 30.04 in    
Wind  
Wind Speed 4 mph (ENE)    
Max Wind Speed 9 mph    
Max Gust Speed -    
Visibility 10 miles    
Events      
Averages and records for this station are not official NWS values.
T = Trace of Precipitation, MM = Missing Value Source: NWS Daily Summary

Daily Weather History Graph

Daily Weather History Graph

Search for Another Location

Airport:

Trip Planner

Search our weather history database for the weather conditions in past years. The results will help you decide how hot, cold, wet, or windy it might be!

Date:

Astronomy

Sep. 10, 2011 Rise Set
Actual Time 6:22 AM CDT 7:11 PM CDT
Civil Twilight 5:53 AM CDT 7:41 PM CDT
Nautical Twilight 5:17 AM CDT 8:16 PM CDT
Astronomical Twilight 4:40 AM CDT 8:53 PM CDT
Moon 6:06 PM CDT (9/10) 4:40 AM CDT (9/10)
Length of Visible Light 13h 48m
Length of Day
12h 48m
Waxing Gibbous, 97% of the Moon is Illuminated
Sep 10
Waxing Gibbous
Sep 12
Full
Sep 20
Last Quarter
Sep 27
New
Oct 3
First Quarter

Hourly Weather History & Observations

Time (CDT) Temp. Dew Point Humidity Pressure Visibility Wind Dir Wind Speed Gust Speed Precip Events Conditions
12:15 AM 59.0 °F 53.6 °F 82% 30.02 in 10.0 mi NNW 5.8 mph - N/A   Clear
12:35 AM 60.8 °F 53.6 °F 77% 30.02 in 10.0 mi North 6.9 mph - N/A   Clear
12:55 AM 60.8 °F 53.6 °F 77% 30.02 in 10.0 mi Calm Calm - N/A   Clear
1:15 AM 57.2 °F 51.8 °F 82% 30.02 in 10.0 mi Calm Calm - N/A   Clear
1:35 AM 55.4 °F 53.6 °F 94% 30.02 in 10.0 mi Calm Calm - N/A   Clear
1:55 AM 53.6 °F 51.8 °F 94% 30.02 in 10.0 mi Calm Calm - N/A   Clear
2:15 AM 55.4 °F 53.6 °F 94% 30.02 in 10.0 mi Calm Calm - N/A   Clear
2:35 AM 55.4 °F 53.6 °F 94% 30.02 in 10.0 mi Calm Calm - N/A   Clear
2:55 AM 55.4 °F 51.8 °F 88% 30.02 in 10.0 mi Calm Calm - N/A   Clear
3:15 AM 53.6 °F 51.8 °F 94% 30.02 in 10.0 mi Calm Calm - N/A   Clear
3:35 AM 55.4 °F 53.6 °F 94% 30.02 in 10.0 mi North 4.6 mph - N/A   Clear
3:55 AM 53.6 °F 51.8 °F 94% 30.02 in 10.0 mi Calm Calm - N/A   Clear
4:15 AM 53.6 °F 53.6 °F 100% 30.03 in 10.0 mi Calm Calm - N/A   Clear
4:35 AM 53.6 °F 53.6 °F 100% 30.03 in 10.0 mi Calm Calm - N/A   Clear
4:55 AM 53.6 °F 53.6 °F 100% 30.03 in 10.0 mi North 6.9 mph - N/A   Clear
5:15 AM 53.6 °F 53.6 °F 100% 30.03 in 10.0 mi North 4.6 mph - N/A   Clear
5:35 AM 53.6 °F 51.8 °F 94% 30.03 in 10.0 mi Calm Calm - N/A   Clear
5:55 AM 53.6 °F 53.6 °F 100% 30.03 in 9.0 mi Calm Calm - N/A   Clear
6:15 AM 53.6 °F 51.8 °F 94% 30.04 in 5.0 mi North 3.5 mph - N/A   Clear
6:35 AM 53.6 °F 51.8 °F 94% 30.05 in 5.0 mi NNW 5.8 mph - N/A   Clear
6:55 AM 53.6 °F 51.8 °F 94% 30.05 in 8.0 mi North 3.5 mph - N/A   Clear
7:15 AM 53.6 °F 53.6 °F 100% 30.05 in 9.0 mi North 5.8 mph - N/A   Clear
7:35 AM 55.4 °F 53.6 °F 94% 30.06 in 10.0 mi Calm Calm - N/A   Clear
7:55 AM 57.2 °F 53.6 °F 88% 30.06 in 10.0 mi North 4.6 mph - N/A   Clear
8:15 AM 57.2 °F 55.4 °F 94% 30.06 in 10.0 mi North 5.8 mph - N/A   Clear
8:35 AM 60.8 °F 57.2 °F 88% 30.06 in 10.0 mi North 4.6 mph - N/A   Clear
8:55 AM 62.6 °F 57.2 °F 82% 30.06 in 10.0 mi NNW 4.6 mph - N/A   Clear
9:15 AM 64.4 °F 57.2 °F 77% 30.06 in 10.0 mi North 3.5 mph - N/A   Clear
9:35 AM 66.2 °F 59.0 °F 78% 30.06 in 10.0 mi NE 3.5 mph - N/A   Clear
9:55 AM 69.8 °F 60.8 °F 73% 30.07 in 10.0 mi Calm Calm - N/A   Clear
10:15 AM 69.8 °F 60.8 °F 73% 30.07 in 10.0 mi SE 6.9 mph - N/A   Clear
10:35 AM 68.0 °F 60.8 °F 78% 30.07 in 10.0 mi ESE 6.9 mph - N/A   Clear
10:55 AM 69.8 °F 60.8 °F 73% 30.07 in 10.0 mi SE 6.9 mph - N/A   Clear
11:15 AM 69.8 °F 62.6 °F 78% 30.07 in 10.0 mi SE 6.9 mph - N/A   Clear
11:35 AM 69.8 °F 62.6 °F 78% 30.06 in 10.0 mi East 8.1 mph - N/A   Clear
11:55 AM 69.8 °F 60.8 °F 73% 30.06 in 10.0 mi ESE 8.1 mph - N/A   Clear
12:15 PM 71.6 °F 60.8 °F 69% 30.05 in 10.0 mi ESE 6.9 mph - N/A   Clear
12:35 PM 69.8 °F 60.8 °F 73% 30.05 in 10.0 mi ESE 8.1 mph - N/A   Clear
12:55 PM 71.6 °F 60.8 °F 69% 30.05 in 10.0 mi East 8.1 mph - N/A   Clear
1:15 PM 71.6 °F 62.6 °F 73% 30.05 in 9.0 mi East 6.9 mph - N/A   Clear
1:35 PM 73.4 °F 60.8 °F 65% 30.05 in 10.0 mi East 8.1 mph - N/A   Clear
1:55 PM 73.4 °F 60.8 °F 65% 30.04 in 10.0 mi East 9.2 mph - N/A   Clear
2:15 PM 75.2 °F 60.8 °F 61% 30.04 in 10.0 mi East 6.9 mph - N/A   Clear
2:35 PM 73.4 °F 60.8 °F 65% 30.04 in 10.0 mi East 8.1 mph - N/A   Clear
2:55 PM 73.4 °F 60.8 °F 65% 30.04 in 10.0 mi East 9.2 mph - N/A   Clear
3:15 PM 73.4 °F 60.8 °F 65% 30.03 in 10.0 mi East 8.1 mph - N/A   Clear
3:35 PM 73.4 °F 60.8 °F 65% 30.02 in 10.0 mi East 8.1 mph - N/A   Clear
3:55 PM 73.4 °F 60.8 °F 65% 30.02 in 10.0 mi East 8.1 mph - N/A   Clear
4:15 PM 73.4 °F 60.8 °F 65% 30.02 in 10.0 mi East 8.1 mph - N/A   Clear
4:35 PM 73.4 °F 60.8 °F 65% 30.02 in 10.0 mi East 8.1 mph - N/A   Clear
4:55 PM 73.4 °F 59.0 °F 61% 30.02 in 10.0 mi East 8.1 mph - N/A   Clear
5:15 PM 73.4 °F 59.0 °F 61% 30.01 in 10.0 mi East 6.9 mph - N/A   Clear
5:35 PM 73.4 °F 59.0 °F 61% 30.01 in 10.0 mi East 4.6 mph - N/A   Clear
5:55 PM 73.4 °F 60.8 °F 65% 30.01 in 10.0 mi Calm Calm - N/A   Clear
6:35 PM 71.6 °F 60.8 °F 69% 30.01 in 10.0 mi Calm Calm - N/A   Clear
6:55 PM 69.8 °F 60.8 °F 73% 30.00 in 10.0 mi Calm Calm - N/A   Clear
7:15 PM 66.2 °F 60.8 °F 83% 30.00 in 10.0 mi Calm Calm - N/A   Clear
7:35 PM 64.4 °F 60.8 °F 88% 30.00 in 10.0 mi Calm Calm - N/A   Clear
7:55 PM 64.4 °F 60.8 °F 88% 30.00 in 10.0 mi Calm Calm - N/A   Clear
8:15 PM 64.4 °F 60.8 °F 88% 30.00 in 10.0 mi Calm Calm - N/A   Clear
8:35 PM 62.6 °F 60.8 °F 94% 30.01 in 10.0 mi Calm Calm - N/A   Clear
8:55 PM 62.6 °F 62.6 °F 100% 30.01 in 4.0 mi Calm Calm - N/A   Clear
9:15 PM 62.6 °F 62.6 °F 100% 30.01 in 2.5 mi Calm Calm - N/A   Clear
9:35 PM 62.6 °F 62.6 °F 100% 30.01 in 6.0 mi Calm Calm - N/A   Clear
9:55 PM 62.6 °F 60.8 °F 94% 30.01 in 9.0 mi Calm Calm - N/A   Clear
10:15 PM 62.6 °F 60.8 °F 94% 30.00 in 9.0 mi SW 3.5 mph - N/A   Clear
10:35 PM 60.8 °F 59.0 °F 94% 30.00 in 10.0 mi Calm Calm - N/A   Clear
10:55 PM 60.8 °F 59.0 °F 94% 30.00 in 10.0 mi Calm Calm - N/A   Clear
11:15 PM 60.8 °F 60.8 °F 100% 30.00 in 4.0 mi Calm Calm - N/A   Clear
11:35 PM 60.8 °F 60.8 °F 100% 30.00 in 3.0 mi Calm Calm - N/A   Clear
11:55 PM 60.8 °F 60.8 °F 100% 30.00 in 5.0 mi Calm Calm - N/A   Clear